sensor_id;sensor_type;location;lat;lon;timestamp;pressure;altitude;pressure_sealevel;temperature
20867;BMP280;10593;48.398;10.698;2023-07-13T00:00:33;96150.69;;;27.97
20867;BMP280;10593;48.398;10.698;2023-07-13T00:02:59;96155.25;;;27.95
20867;BMP280;10593;48.398;10.698;2023-07-13T00:05:25;96163.19;;;27.95
20867;BMP280;10593;48.398;10.698;2023-07-13T00:07:52;96162.38;;;27.94
20867;BMP280;10593;48.398;10.698;2023-07-13T00:10:18;96156.22;;;27.94
20867;BMP280;10593;48.398;10.698;2023-07-13T00:12:44;96142.31;;;27.92
20867;BMP280;10593;48.398;10.698;2023-07-13T00:15:16;96138.72;;;27.93
20867;BMP280;10593;48.398;10.698;2023-07-13T00:17:43;96138.00;;;27.91
20867;BMP280;10593;48.398;10.698;2023-07-13T00:20:11;96138.97;;;27.90
20867;BMP280;10593;48.398;10.698;2023-07-13T00:22:37;96135.63;;;27.88
20867;BMP280;10593;48.398;10.698;2023-07-13T00:25:04;96140.94;;;27.88
20867;BMP280;10593;48.398;10.698;2023-07-13T00:27:29;96146.34;;;27.86
20867;BMP280;10593;48.398;10.698;2023-07-13T00:29:57;96141.03;;;27.86
20867;BMP280;10593;48.398;10.698;2023-07-13T00:32:24;96143.84;;;27.85
20867;BMP280;10593;48.398;10.698;2023-07-13T00:34:51;96144.81;;;27.84
20867;BMP280;10593;48.398;10.698;2023-07-13T00:37:17;96146.59;;;27.83
20867;BMP280;10593;48.398;10.698;2023-07-13T00:39:43;96143.13;;;27.83
20867;BMP280;10593;48.398;10.698;2023-07-13T00:42:09;96150.34;;;27.81
20867;BMP280;10593;48.398;10.698;2023-07-13T00:44:36;96150.22;;;27.82
20867;BMP280;10593;48.398;10.698;2023-07-13T00:47:02;96149.53;;;27.80
20867;BMP280;10593;48.398;10.698;2023-07-13T00:49:31;96146.88;;;27.80
20867;BMP280;10593;48.398;10.698;2023-07-13T00:52:03;96145.22;;;27.79
20867;BMP280;10593;48.398;10.698;2023-07-13T00:54:34;96144.38;;;27.79
20867;BMP280;10593;48.398;10.698;2023-07-13T00:57:04;96134.75;;;27.78
20867;BMP280;10593;48.398;10.698;2023-07-13T00:59:31;96125.16;;;27.77
20867;BMP280;10593;48.398;10.698;2023-07-13T01:01:58;96125.28;;;27.75
20867;BMP280;10593;48.398;10.698;2023-07-13T01:04:25;96123.63;;;27.74
20867;BMP280;10593;48.398;10.698;2023-07-13T01:06:52;96114.88;;;27.74
20867;BMP280;10593;48.398;10.698;2023-07-13T01:09:19;96131.69;;;27.73
20867;BMP280;10593;48.398;10.698;2023-07-13T01:11:45;96136.97;;;27.73
20867;BMP280;10593;48.398;10.698;2023-07-13T01:14:11;96131.69;;;27.73
20867;BMP280;10593;48.398;10.698;2023-07-13T01:16:38;96137.94;;;27.72
20867;BMP280;10593;48.398;10.698;2023-07-13T01:19:35;96140.69;;;27.70
20867;BMP280;10593;48.398;10.698;2023-07-13T01:22:12;96135.53;;;27.69
20867;BMP280;10593;48.398;10.698;2023-07-13T01:24:43;96135.53;;;27.69
20867;BMP280;10593;48.398;10.698;2023-07-13T01:27:12;96121.63;;;27.67
20867;BMP280;10593;48.398;10.698;2023-07-13T01:29:40;96115.38;;;27.68
20867;BMP280;10593;48.398;10.698;2023-07-13T01:32:13;96112.03;;;27.66
20867;BMP280;10593;48.398;10.698;2023-07-13T01:34:39;96116.50;;;27.65
20867;BMP280;10593;48.398;10.698;2023-07-13T01:37:09;96127.88;;;27.66
20867;BMP280;10593;48.398;10.698;2023-07-13T01:39:35;96116.50;;;27.65
20867;BMP280;10593;48.398;10.698;2023-07-13T01:42:01;96121.78;;;27.65
20867;BMP280;10593;48.398;10.698;2023-07-13T01:44:27;96121.91;;;27.64
20867;BMP280;10593;48.398;10.698;2023-07-13T01:46:53;96121.91;;;27.64
20867;BMP280;10593;48.398;10.698;2023-07-13T01:49:19;96127.28;;;27.62
20867;BMP280;10593;48.398;10.698;2023-07-13T01:51:44;96124.66;;;27.62
20867;BMP280;10593;48.398;10.698;2023-07-13T01:54:10;96129.13;;;27.62
20867;BMP280;10593;48.398;10.698;2023-07-13T01:56:36;96130.09;;;27.61
20867;BMP280;10593;48.398;10.698;2023-07-13T01:59:01;96127.44;;;27.61
20867;BMP280;10593;48.398;10.698;2023-07-13T02:01:27;96119.53;;;27.61
20867;BMP280;10593;48.398;10.698;2023-07-13T02:03:53;96124.09;;;27.59
20867;BMP280;10593;48.398;10.698;2023-07-13T02:06:18;96125.91;;;27.58
20867;BMP280;10593;48.398;10.698;2023-07-13T02:08:44;96128.53;;;27.58
20867;BMP280;10593;48.398;10.698;2023-07-13T02:11:09;96117.16;;;27.58
20867;BMP280;10593;48.398;10.698;2023-07-13T02:13:35;96136.63;;;27.57
20867;BMP280;10593;48.398;10.698;2023-07-13T02:16:01;96125.19;;;27.56
20867;BMP280;10593;48.398;10.698;2023-07-13T02:18:26;96134.09;;;27.55
20867;BMP280;10593;48.398;10.698;2023-07-13T02:20:52;96133.25;;;27.55
20867;BMP280;10593;48.398;10.698;2023-07-13T02:23:18;96136.72;;;27.55
20867;BMP280;10593;48.398;10.698;2023-07-13T02:25:46;96137.69;;;27.54
20867;BMP280;10593;48.398;10.698;2023-07-13T02:28:12;96151.03;;;27.53
20867;BMP280;10593;48.398;10.698;2023-07-13T02:30:37;96149.34;;;27.52
20867;BMP280;10593;48.398;10.698;2023-07-13T02:33:04;96155.50;;;27.52
20867;BMP280;10593;48.398;10.698;2023-07-13T02:35:30;96159.91;;;27.52
20867;BMP280;10593;48.398;10.698;2023-07-13T02:37:56;96156.56;;;27.50
20867;BMP280;10593;48.398;10.698;2023-07-13T02:40:22;96160.19;;;27.49
20867;BMP280;10593;48.398;10.698;2023-07-13T02:42:48;96164.50;;;27.50
20867;BMP280;10593;48.398;10.698;2023-07-13T02:45:14;96165.47;;;27.49
20867;BMP280;10593;48.398;10.698;2023-07-13T02:47:41;96174.34;;;27.48
20867;BMP280;10593;48.398;10.698;2023-07-13T02:50:08;96174.47;;;27.46
20867;BMP280;10593;48.398;10.698;2023-07-13T02:52:34;96173.66;;;27.46
20867;BMP280;10593;48.398;10.698;2023-07-13T02:55:00;96175.44;;;27.45
20867;BMP280;10593;48.398;10.698;2023-07-13T02:57:26;96174.63;;;27.45
20867;BMP280;10593;48.398;10.698;2023-07-13T02:59:53;96178.25;;;27.44
20867;BMP280;10593;48.398;10.698;2023-07-13T03:02:20;96183.63;;;27.42
20867;BMP280;10593;48.398;10.698;2023-07-13T03:04:45;96186.28;;;27.42
20867;BMP280;10593;48.398;10.698;2023-07-13T03:07:11;96185.41;;;27.42
20867;BMP280;10593;48.398;10.698;2023-07-13T03:09:37;96182.94;;;27.40
20867;BMP280;10593;48.398;10.698;2023-07-13T03:12:03;96182.09;;;27.40
20867;BMP280;10593;48.398;10.698;2023-07-13T03:14:29;96191.94;;;27.38
20867;BMP280;10593;48.398;10.698;2023-07-13T03:16:55;96184.03;;;27.38
20867;BMP280;10593;48.398;10.698;2023-07-13T03:19:21;96186.81;;;27.36
20867;BMP280;10593;48.398;10.698;2023-07-13T03:21:46;96185.09;;;27.35
20867;BMP280;10593;48.398;10.698;2023-07-13T03:24:12;96184.28;;;27.35
20867;BMP280;10593;48.398;10.698;2023-07-13T03:26:38;96182.63;;;27.34
20867;BMP280;10593;48.398;10.698;2023-07-13T03:29:04;96186.22;;;27.33
20867;BMP280;10593;48.398;10.698;2023-07-13T03:31:34;96179.28;;;27.32
20867;BMP280;10593;48.398;10.698;2023-07-13T03:34:00;96183.69;;;27.31
20867;BMP280;10593;48.398;10.698;2023-07-13T03:36:29;96183.84;;;27.30
20867;BMP280;10593;48.398;10.698;2023-07-13T03:39:01;96183.84;;;27.30
20867;BMP280;10593;48.398;10.698;2023-07-13T03:41:27;96191.88;;;27.28
20867;BMP280;10593;48.398;10.698;2023-07-13T03:43:53;96194.66;;;27.27
20867;BMP280;10593;48.398;10.698;2023-07-13T03:46:18;96195.59;;;27.26
20867;BMP280;10593;48.398;10.698;2023-07-13T03:48:46;96200.88;;;27.26
20867;BMP280;10593;48.398;10.698;2023-07-13T03:51:15;96193.94;;;27.25
20867;BMP280;10593;48.398;10.698;2023-07-13T03:53:43;96202.81;;;27.24
20867;BMP280;10593;48.398;10.698;2023-07-13T03:56:10;96197.56;;;27.24
20867;BMP280;10593;48.398;10.698;2023-07-13T03:58:40;96206.44;;;27.23
20867;BMP280;10593;48.398;10.698;2023-07-13T04:01:09;96203.91;;;27.21
20867;BMP280;10593;48.398;10.698;2023-07-13T04:03:35;96212.78;;;27.20
20867;BMP280;10593;48.398;10.698;2023-07-13T04:06:05;96218.06;;;27.20
20867;BMP280;10593;48.398;10.698;2023-07-13T04:08:36;96223.50;;;27.19
20867;BMP280;10593;48.398;10.698;2023-07-13T04:11:04;96227.94;;;27.18
20867;BMP280;10593;48.398;10.698;2023-07-13T04:13:30;96228.06;;;27.17
20867;BMP280;10593;48.398;10.698;2023-07-13T04:15:56;96228.06;;;27.17
20867;BMP280;10593;48.398;10.698;2023-07-13T04:18:22;96231.69;;;27.16
20867;BMP280;10593;48.398;10.698;2023-07-13T04:20:49;96239.59;;;27.16
20867;BMP280;10593;48.398;10.698;2023-07-13T04:23:16;96229.97;;;27.15
20867;BMP280;10593;48.398;10.698;2023-07-13T04:25:46;96229.16;;;27.14
20867;BMP280;10593;48.398;10.698;2023-07-13T04:28:15;96242.47;;;27.13
20867;BMP280;10593;48.398;10.698;2023-07-13T04:30:41;96246.94;;;27.12
20867;BMP280;10593;48.398;10.698;2023-07-13T04:33:07;96251.34;;;27.12
20867;BMP280;10593;48.398;10.698;2023-07-13T04:35:34;96246.19;;;27.10
20867;BMP280;10593;48.398;10.698;2023-07-13T04:38:00;96248.81;;;27.10
20867;BMP280;10593;48.398;10.698;2023-07-13T04:40:27;96257.72;;;27.09
20867;BMP280;10593;48.398;10.698;2023-07-13T04:42:53;96258.66;;;27.08
20867;BMP280;10593;48.398;10.698;2023-07-13T04:45:19;96256.00;;;27.08
20867;BMP280;10593;48.398;10.698;2023-07-13T04:47:45;96265.75;;;27.08
20867;BMP280;10593;48.398;10.698;2023-07-13T04:50:13;96271.84;;;27.08
20867;BMP280;10593;48.398;10.698;2023-07-13T04:52:44;96264.88;;;27.07
20867;BMP280;10593;48.398;10.698;2023-07-13T04:55:11;96264.06;;;27.07
20867;BMP280;10593;48.398;10.698;2023-07-13T04:57:36;96256.16;;;27.07
20867;BMP280;10593;48.398;10.698;2023-07-13T05:00:04;96263.22;;;27.06
20867;BMP280;10593;48.398;10.698;2023-07-13T05:02:31;96261.53;;;27.05
20867;BMP280;10593;48.398;10.698;2023-07-13T05:04:58;96270.31;;;27.06
20867;BMP280;10593;48.398;10.698;2023-07-13T05:07:25;96264.19;;;27.05
20867;BMP280;10593;48.398;10.698;2023-07-13T05:09:51;96266.00;;;27.05
20867;BMP280;10593;48.398;10.698;2023-07-13T05:12:18;96268.63;;;27.05
20867;BMP280;10593;48.398;10.698;2023-07-13T05:14:44;96264.19;;;27.05
20867;BMP280;10593;48.398;10.698;2023-07-13T05:17:10;96280.16;;;27.04
20867;BMP280;10593;48.398;10.698;2023-07-13T05:19:36;96266.00;;;27.05
20867;BMP280;10593;48.398;10.698;2023-07-13T05:22:02;96271.28;;;27.05
20867;BMP280;10593;48.398;10.698;2023-07-13T05:24:29;96270.41;;;27.04
20867;BMP280;10593;48.398;10.698;2023-07-13T05:26:55;96273.91;;;27.05
20867;BMP280;10593;48.398;10.698;2023-07-13T05:29:21;96272.25;;;27.04
20867;BMP280;10593;48.398;10.698;2023-07-13T05:31:48;96275.69;;;27.04
20867;BMP280;10593;48.398;10.698;2023-07-13T05:34:14;96277.53;;;27.04
20867;BMP280;10593;48.398;10.698;2023-07-13T05:36:40;96275.69;;;27.04
20867;BMP280;10593;48.398;10.698;2023-07-13T05:39:06;96281.81;;;27.05
20867;BMP280;10593;48.398;10.698;2023-07-13T05:41:32;96285.44;;;27.04
20867;BMP280;10593;48.398;10.698;2023-07-13T05:43:58;96279.19;;;27.05
20867;BMP280;10593;48.398;10.698;2023-07-13T05:46:24;96288.06;;;27.04
20867;BMP280;10593;48.398;10.698;2023-07-13T05:48:49;96296.81;;;27.04
20867;BMP280;10593;48.398;10.698;2023-07-13T05:51:15;96294.16;;;27.04
20867;BMP280;10593;48.398;10.698;2023-07-13T05:53:40;96299.59;;;27.03
20867;BMP280;10593;48.398;10.698;2023-07-13T05:56:06;96292.59;;;27.02
20867;BMP280;10593;48.398;10.698;2023-07-13T05:58:32;96293.56;;;27.01
20867;BMP280;10593;48.398;10.698;2023-07-13T06:01:13;96296.34;;;26.99
20867;BMP280;10593;48.398;10.698;2023-07-13T06:03:39;96297.44;;;26.97
20867;BMP280;10593;48.398;10.698;2023-07-13T06:06:07;96291.44;;;26.95
20867;BMP280;10593;48.398;10.698;2023-07-13T06:08:34;96291.56;;;26.93
20867;BMP280;10593;48.398;10.698;2023-07-13T06:11:06;96303.06;;;26.92
20867;BMP280;10593;48.398;10.698;2023-07-13T06:13:32;96298.91;;;26.90
20867;BMP280;10593;48.398;10.698;2023-07-13T06:15:59;96301.66;;;26.88
20867;BMP280;10593;48.398;10.698;2023-07-13T06:18:25;96301.78;;;26.87
20867;BMP280;10593;48.398;10.698;2023-07-13T06:20:51;96307.19;;;26.85
20867;BMP280;10593;48.398;10.698;2023-07-13T06:23:16;96307.31;;;26.84
20867;BMP280;10593;48.398;10.698;2023-07-13T06:25:43;96309.13;;;26.83
20867;BMP280;10593;48.398;10.698;2023-07-13T06:28:09;96318.94;;;26.81
20867;BMP280;10593;48.398;10.698;2023-07-13T06:30:34;96322.41;;;26.82
20867;BMP280;10593;48.398;10.698;2023-07-13T06:33:00;96323.38;;;26.81
20867;BMP280;10593;48.398;10.698;2023-07-13T06:35:25;96328.78;;;26.79
20867;BMP280;10593;48.398;10.698;2023-07-13T06:37:51;96337.78;;;26.77
20867;BMP280;10593;48.398;10.698;2023-07-13T06:40:17;96336.94;;;26.76
20867;BMP280;10593;48.398;10.698;2023-07-13T06:42:42;96339.69;;;26.75
20867;BMP280;10593;48.398;10.698;2023-07-13T06:45:09;96341.50;;;26.74
20867;BMP280;10593;48.398;10.698;2023-07-13T06:47:34;96337.28;;;26.72
20867;BMP280;10593;48.398;10.698;2023-07-13T06:50:01;96333.94;;;26.70
20867;BMP280;10593;48.398;10.698;2023-07-13T06:52:26;96343.69;;;26.69
20867;BMP280;10593;48.398;10.698;2023-07-13T06:54:52;96344.59;;;26.68
20867;BMP280;10593;48.398;10.698;2023-07-13T06:57:18;96339.47;;;26.67
20867;BMP280;10593;48.398;10.698;2023-07-13T06:59:43;96336.69;;;26.68
20867;BMP280;10593;48.398;10.698;2023-07-13T07:02:10;96348.94;;;26.69
20867;BMP280;10593;48.398;10.698;2023-07-13T07:04:36;96343.69;;;26.69
20867;BMP280;10593;48.398;10.698;2023-07-13T07:07:02;96342.72;;;26.70
20867;BMP280;10593;48.398;10.698;2023-07-13T07:09:28;96346.16;;;26.71
20867;BMP280;10593;48.398;10.698;2023-07-13T07:11:55;96355.75;;;26.72
20867;BMP280;10593;48.398;10.698;2023-07-13T07:14:21;96354.94;;;26.71
20867;BMP280;10593;48.398;10.698;2023-07-13T07:16:46;96352.16;;;26.73
20867;BMP280;10593;48.398;10.698;2023-07-13T07:19:12;96355.50;;;26.75
20867;BMP280;10593;48.398;10.698;2023-07-13T07:21:38;96354.44;;;26.77
20867;BMP280;10593;48.398;10.698;2023-07-13T07:24:05;96365.59;;;26.81
20867;BMP280;10593;48.398;10.698;2023-07-13T07:26:31;96357.69;;;26.81
20867;BMP280;10593;48.398;10.698;2023-07-13T07:28:56;96363.66;;;26.83
20867;BMP280;10593;48.398;10.698;2023-07-13T07:31:22;96371.56;;;26.83
20867;BMP280;10593;48.398;10.698;2023-07-13T07:33:48;96380.19;;;26.85
20867;BMP280;10593;48.398;10.698;2023-07-13T07:36:15;96374.94;;;26.85
20867;BMP280;10593;48.398;10.698;2023-07-13T07:38:42;96364.25;;;26.86
20867;BMP280;10593;48.398;10.698;2023-07-13T07:41:08;96370.25;;;26.88
20867;BMP280;10593;48.398;10.698;2023-07-13T07:43:34;96374.69;;;26.88
20867;BMP280;10593;48.398;10.698;2023-07-13T07:46:00;96383.34;;;26.90
20867;BMP280;10593;48.398;10.698;2023-07-13T07:48:25;96382.47;;;26.89
20867;BMP280;10593;48.398;10.698;2023-07-13T07:50:51;96387.88;;;26.88
20867;BMP280;10593;48.398;10.698;2023-07-13T07:53:17;96387.75;;;26.89
20867;BMP280;10593;48.398;10.698;2023-07-13T07:55:42;96388.59;;;26.90
20867;BMP280;10593;48.398;10.698;2023-07-13T07:58:09;96378.88;;;26.90
20867;BMP280;10593;48.398;10.698;2023-07-13T08:00:34;96384.03;;;26.92
20867;BMP280;10593;48.398;10.698;2023-07-13T08:03:01;96385.72;;;26.93
20867;BMP280;10593;48.398;10.698;2023-07-13T08:05:27;96391.81;;;26.93
20867;BMP280;10593;48.398;10.698;2023-07-13T08:07:54;96400.59;;;26.94
20867;BMP280;10593;48.398;10.698;2023-07-13T08:10:20;96398.91;;;26.93
20867;BMP280;10593;48.398;10.698;2023-07-13T08:12:45;96399.72;;;26.93
20867;BMP280;10593;48.398;10.698;2023-07-13T08:15:15;96402.25;;;26.95
20867;BMP280;10593;48.398;10.698;2023-07-13T08:17:41;96391.00;;;26.93
20867;BMP280;10593;48.398;10.698;2023-07-13T08:20:08;96394.44;;;26.93
20867;BMP280;10593;48.398;10.698;2023-07-13T08:22:37;96390.84;;;26.94
20867;BMP280;10593;48.398;10.698;2023-07-13T08:25:02;96402.25;;;26.95
20867;BMP280;10593;48.398;10.698;2023-07-13T08:27:29;96390.75;;;26.96
20867;BMP280;10593;48.398;10.698;2023-07-13T08:29:54;96394.22;;;26.96
20867;BMP280;10593;48.398;10.698;2023-07-13T08:32:22;96399.38;;;26.98
20867;BMP280;10593;48.398;10.698;2023-07-13T08:34:49;96399.38;;;26.98
20867;BMP280;10593;48.398;10.698;2023-07-13T08:37:15;96407.28;;;26.98
20867;BMP280;10593;48.398;10.698;2023-07-13T08:39:41;96415.91;;;27.00
20867;BMP280;10593;48.398;10.698;2023-07-13T08:42:37;96406.31;;;26.99
20867;BMP280;10593;48.398;10.698;2023-07-13T08:45:30;96408.13;;;26.98
20867;BMP280;10593;48.398;10.698;2023-07-13T08:48:10;96398.41;;;26.99
20867;BMP280;10593;48.398;10.698;2023-07-13T08:50:51;96406.22;;;27.00
20867;BMP280;10593;48.398;10.698;2023-07-13T08:53:19;96405.34;;;27.00
20867;BMP280;10593;48.398;10.698;2023-07-13T08:55:45;96405.34;;;27.00
20867;BMP280;10593;48.398;10.698;2023-07-13T08:58:18;96410.53;;;27.01
20867;BMP280;10593;48.398;10.698;2023-07-13T09:03:41;96415.69;;;27.03
20867;BMP280;10593;48.398;10.698;2023-07-13T09:06:12;96419.88;;;27.05
20867;BMP280;10593;48.398;10.698;2023-07-13T09:09:03;96414.59;;;27.05
20867;BMP280;10593;48.398;10.698;2023-07-13T09:14:50;96417.94;;;27.07
20867;BMP280;10593;48.398;10.698;2023-07-13T09:17:22;96411.84;;;27.07
20867;BMP280;10593;48.398;10.698;2023-07-13T09:20:00;96410.75;;;27.09
20867;BMP280;10593;48.398;10.698;2023-07-13T09:22:34;96411.59;;;27.10
20867;BMP280;10593;48.398;10.698;2023-07-13T09:25:29;96412.31;;;27.12
20867;BMP280;10593;48.398;10.698;2023-07-13T09:28:02;96413.91;;;27.14
20867;BMP280;10593;48.398;10.698;2023-07-13T09:30:51;96419.88;;;27.16
20867;BMP280;10593;48.398;10.698;2023-07-13T09:33:21;96418.09;;;27.17
20867;BMP280;10593;48.398;10.698;2023-07-13T09:35:48;96425.06;;;27.18
20867;BMP280;10593;48.398;10.698;2023-07-13T09:38:18;96419.78;;;27.18
20867;BMP280;10593;48.398;10.698;2023-07-13T09:41:26;96415.47;;;27.17
20867;BMP280;10593;48.398;10.698;2023-07-13T09:44:13;96413.66;;;27.17
20867;BMP280;10593;48.398;10.698;2023-07-13T09:47:00;96417.97;;;27.18
20867;BMP280;10593;48.398;10.698;2023-07-13T09:49:35;96422.97;;;27.21
20867;BMP280;10593;48.398;10.698;2023-07-13T09:52:06;96415.66;;;27.25
20867;BMP280;10593;48.398;10.698;2023-07-13T09:54:36;96413.72;;;27.27
20867;BMP280;10593;48.398;10.698;2023-07-13T09:57:12;96419.59;;;27.30
20867;BMP280;10593;48.398;10.698;2023-07-13T09:59:43;96418.38;;;27.34
20867;BMP280;10593;48.398;10.698;2023-07-13T10:02:34;96404.97;;;27.37
20867;BMP280;10593;48.398;10.698;2023-07-13T10:05:14;96416.09;;;27.41
20867;BMP280;10593;48.398;10.698;2023-07-13T10:07:44;96418.38;;;27.45
20867;BMP280;10593;48.398;10.698;2023-07-13T10:10:22;96425.91;;;27.50
20867;BMP280;10593;48.398;10.698;2023-07-13T10:12:49;96414.28;;;27.52
20867;BMP280;10593;48.398;10.698;2023-07-13T10:15:21;96420.13;;;27.56
20867;BMP280;10593;48.398;10.698;2023-07-13T10:17:49;96423.25;;;27.61
20867;BMP280;10593;48.398;10.698;2023-07-13T10:20:16;96429.13;;;27.64
20867;BMP280;10593;48.398;10.698;2023-07-13T10:22:51;96434.16;;;27.67
20867;BMP280;10593;48.398;10.698;2023-07-13T10:25:25;96430.19;;;27.73
20867;BMP280;10593;48.398;10.698;2023-07-13T10:27:58;96430.91;;;27.75
20867;BMP280;10593;48.398;10.698;2023-07-13T10:30:29;96433.28;;;27.78
20867;BMP280;10593;48.398;10.698;2023-07-13T10:33:03;96434.00;;;27.80
20867;BMP280;10593;48.398;10.698;2023-07-13T10:35:31;96427.63;;;27.82
20867;BMP280;10593;48.398;10.698;2023-07-13T10:38:22;96430.16;;;27.84
20867;BMP280;10593;48.398;10.698;2023-07-13T10:40:58;96419.31;;;27.87
20867;BMP280;10593;48.398;10.698;2023-07-13T10:43:38;96423.63;;;27.88
20867;BMP280;10593;48.398;10.698;2023-07-13T10:46:09;96410.16;;;27.91
20867;BMP280;10593;48.398;10.698;2023-07-13T10:48:38;96416.88;;;27.95
20867;BMP280;10593;48.398;10.698;2023-07-13T10:51:07;96421.91;;;27.98
20867;BMP280;10593;48.398;10.698;2023-07-13T10:53:36;96413.72;;;28.01
20867;BMP280;10593;48.398;10.698;2023-07-13T10:56:10;96416.97;;;28.04
20867;BMP280;10593;48.398;10.698;2023-07-13T10:58:43;96413.19;;;28.07
20867;BMP280;10593;48.398;10.698;2023-07-13T11:01:16;96416.44;;;28.10
20867;BMP280;10593;48.398;10.698;2023-07-13T11:04:00;96417.00;;;28.14
20867;BMP280;10593;48.398;10.698;2023-07-13T11:08:58;96416.47;;;28.19
20867;BMP280;10593;48.398;10.698;2023-07-13T11:19:18;96417.38;;;28.29
20867;BMP280;10593;48.398;10.698;2023-07-13T11:25:01;96407.28;;;28.34
20867;BMP280;10593;48.398;10.698;2023-07-13T11:27:44;96403.53;;;28.37
20867;BMP280;10593;48.398;10.698;2023-07-13T11:33:14;96407.47;;;28.42
20867;BMP280;10593;48.398;10.698;2023-07-13T11:38:30;96409.84;;;28.45
20867;BMP280;10593;48.398;10.698;2023-07-13T11:41:03;96400.69;;;28.49
20867;BMP280;10593;48.398;10.698;2023-07-13T11:43:30;96404.06;;;28.51
20867;BMP280;10593;48.398;10.698;2023-07-13T11:45:55;96402.81;;;28.55
20867;BMP280;10593;48.398;10.698;2023-07-13T11:48:29;96398.22;;;28.57
20867;BMP280;10593;48.398;10.698;2023-07-13T11:51:04;96399.78;;;28.60
20867;BMP280;10593;48.398;10.698;2023-07-13T11:53:43;96397.84;;;28.62
20867;BMP280;10593;48.398;10.698;2023-07-13T11:56:10;96391.44;;;28.64
20867;BMP280;10593;48.398;10.698;2023-07-13T11:58:36;96396.31;;;28.69
20867;BMP280;10593;48.398;10.698;2023-07-13T12:01:03;96391.59;;;28.72
20867;BMP280;10593;48.398;10.698;2023-07-13T12:03:34;96381.72;;;28.74
20867;BMP280;10593;48.398;10.698;2023-07-13T12:06:27;96388.44;;;28.78
20867;BMP280;10593;48.398;10.698;2023-07-13T12:08:57;96386.50;;;28.80
20867;BMP280;10593;48.398;10.698;2023-07-13T12:11:23;96398.59;;;28.83
20867;BMP280;10593;48.398;10.698;2023-07-13T12:13:50;96387.06;;;28.84
20867;BMP280;10593;48.398;10.698;2023-07-13T12:16:36;96381.50;;;28.87
20867;BMP280;10593;48.398;10.698;2023-07-13T12:19:03;96384.75;;;28.90
20867;BMP280;10593;48.398;10.698;2023-07-13T12:21:37;96379.31;;;28.92
20867;BMP280;10593;48.398;10.698;2023-07-13T12:24:05;96380.00;;;28.94
20867;BMP280;10593;48.398;10.698;2023-07-13T12:26:38;96373.63;;;28.96
20867;BMP280;10593;48.398;10.698;2023-07-13T12:29:06;96371.66;;;28.98
20867;BMP280;10593;48.398;10.698;2023-07-13T12:31:41;96381.97;;;29.01
20867;BMP280;10593;48.398;10.698;2023-07-13T12:34:08;96378.34;;;29.02
20867;BMP280;10593;48.398;10.698;2023-07-13T12:36:38;96372.94;;;29.04
20867;BMP280;10593;48.398;10.698;2023-07-13T12:39:28;96364.13;;;29.03
20867;BMP280;10593;48.398;10.698;2023-07-13T12:42:19;96348.41;;;29.02
20867;BMP280;10593;48.398;10.698;2023-07-13T12:44:57;96357.16;;;29.02
20867;BMP280;10593;48.398;10.698;2023-07-13T12:47:24;96358.72;;;29.05
20867;BMP280;10593;48.398;10.698;2023-07-13T12:49:56;96362.06;;;29.07
20867;BMP280;10593;48.398;10.698;2023-07-13T12:52:32;96356.66;;;29.08
20867;BMP280;10593;48.398;10.698;2023-07-13T12:55:12;96345.91;;;29.10
20867;BMP280;10593;48.398;10.698;2023-07-13T12:57:56;96342.31;;;29.11
20867;BMP280;10593;48.398;10.698;2023-07-13T13:00:30;96348.44;;;29.11
20867;BMP280;10593;48.398;10.698;2023-07-13T13:03:16;96340.34;;;29.13
20867;BMP280;10593;48.398;10.698;2023-07-13T13:05:43;96341.06;;;29.15
20867;BMP280;10593;48.398;10.698;2023-07-13T13:08:13;96339.94;;;29.17
20867;BMP280;10593;48.398;10.698;2023-07-13T13:10:39;96343.13;;;29.21
20867;BMP280;10593;48.398;10.698;2023-07-13T13:13:05;96343.81;;;29.23
20867;BMP280;10593;48.398;10.698;2023-07-13T13:15:31;96339.25;;;29.25
20867;BMP280;10593;48.398;10.698;2023-07-13T13:17:56;96337.31;;;29.27
20867;BMP280;10593;48.398;10.698;2023-07-13T13:20:25;96330.06;;;29.29
20867;BMP280;10593;48.398;10.698;2023-07-13T13:22:53;96337.03;;;29.30
20867;BMP280;10593;48.398;10.698;2023-07-13T13:25:19;96339.66;;;29.30
20867;BMP280;10593;48.398;10.698;2023-07-13T13:27:45;96337.72;;;29.32
20867;BMP280;10593;48.398;10.698;2023-07-13T13:30:17;96342.88;;;29.33
20867;BMP280;10593;48.398;10.698;2023-07-13T13:32:46;96337.59;;;29.33
20867;BMP280;10593;48.398;10.698;2023-07-13T13:35:18;96337.59;;;29.33
20867;BMP280;10593;48.398;10.698;2023-07-13T13:37:45;96335.75;;;29.34
20867;BMP280;10593;48.398;10.698;2023-07-13T13:40:18;96343.56;;;29.35
20867;BMP280;10593;48.398;10.698;2023-07-13T13:42:44;96340.78;;;29.37
20867;BMP280;10593;48.398;10.698;2023-07-13T13:45:11;96333.69;;;29.37
20867;BMP280;10593;48.398;10.698;2023-07-13T13:47:39;96340.66;;;29.38
20867;BMP280;10593;48.398;10.698;2023-07-13T13:50:13;96339.53;;;29.41
20867;BMP280;10593;48.398;10.698;2023-07-13T13:52:40;96341.22;;;29.42
20867;BMP280;10593;48.398;10.698;2023-07-13T13:55:21;96332.41;;;29.41
20867;BMP280;10593;48.398;10.698;2023-07-13T13:57:48;96336.75;;;29.42
20867;BMP280;10593;48.398;10.698;2023-07-13T14:00:16;96338.41;;;29.43
20867;BMP280;10593;48.398;10.698;2023-07-13T14:02:46;96339.94;;;29.46
20867;BMP280;10593;48.398;10.698;2023-07-13T14:05:15;96337.31;;;29.46
20867;BMP280;10593;48.398;10.698;2023-07-13T14:07:41;96338.16;;;29.46
20867;BMP280;10593;48.398;10.698;2023-07-13T14:10:16;96332.72;;;29.48
20867;BMP280;10593;48.398;10.698;2023-07-13T14:12:45;96333.59;;;29.48
20867;BMP280;10593;48.398;10.698;2023-07-13T14:15:26;96333.41;;;29.50
20867;BMP280;10593;48.398;10.698;2023-07-13T14:17:54;96331.50;;;29.52
20867;BMP280;10593;48.398;10.698;2023-07-13T14:20:23;96334.00;;;29.53
20867;BMP280;10593;48.398;10.698;2023-07-13T14:22:51;96327.59;;;29.56
20867;BMP280;10593;48.398;10.698;2023-07-13T14:25:19;96336.22;;;29.58
20867;BMP280;10593;48.398;10.698;2023-07-13T14:27:49;96328.97;;;29.60
20867;BMP280;10593;48.398;10.698;2023-07-13T14:30:20;96332.31;;;29.62
20867;BMP280;10593;48.398;10.698;2023-07-13T14:32:47;96327.84;;;29.62